sensor_id;sensor_type;location;lat;lon;timestamp;P1;durP1;ratioP1;P2;durP2;ratioP2
79640;SDS011;69115;49.904;14.390;2024-03-08T00:00:22;44.22;;;22.83;;
79640;SDS011;69115;49.904;14.390;2024-03-08T00:02:48;42.67;;;22.73;;
79640;SDS011;69115;49.904;14.390;2024-03-08T00:05:15;42.63;;;21.73;;
79640;SDS011;69115;49.904;14.390;2024-03-08T00:07:41;47.42;;;23.73;;
79640;SDS011;69115;49.904;14.390;2024-03-08T00:10:08;46.47;;;22.08;;
79640;SDS011;69115;49.904;14.390;2024-03-08T00:12:39;41.28;;;21.45;;
79640;SDS011;69115;49.904;14.390;2024-03-08T00:15:07;41.58;;;21.55;;
79640;SDS011;69115;49.904;14.390;2024-03-08T00:17:36;43.83;;;23.65;;
79640;SDS011;69115;49.904;14.390;2024-03-08T00:20:02;40.10;;;20.08;;
79640;SDS011;69115;49.904;14.390;2024-03-08T00:22:33;44.80;;;21.50;;
79640;SDS011;69115;49.904;14.390;2024-03-08T00:25:02;45.85;;;24.17;;
79640;SDS011;69115;49.904;14.390;2024-03-08T00:27:28;44.05;;;21.13;;
79640;SDS011;69115;49.904;14.390;2024-03-08T00:29:57;49.17;;;23.92;;
79640;SDS011;69115;49.904;14.390;2024-03-08T00:32:22;45.45;;;22.65;;
79640;SDS011;69115;49.904;14.390;2024-03-08T00:34:52;43.47;;;21.90;;
79640;SDS011;69115;49.904;14.390;2024-03-08T00:37:20;46.97;;;23.38;;
79640;SDS011;69115;49.904;14.390;2024-03-08T00:39:50;50.33;;;22.77;;
79640;SDS011;69115;49.904;14.390;2024-03-08T00:42:18;48.35;;;23.55;;
79640;SDS011;69115;49.904;14.390;2024-03-08T00:44:44;49.15;;;24.13;;
79640;SDS011;69115;49.904;14.390;2024-03-08T00:47:09;50.92;;;24.80;;
79640;SDS011;69115;49.904;14.390;2024-03-08T00:49:35;45.22;;;23.75;;
79640;SDS011;69115;49.904;14.390;2024-03-08T00:52:03;50.35;;;24.48;;
79640;SDS011;69115;49.904;14.390;2024-03-08T00:54:30;46.80;;;24.13;;
79640;SDS011;69115;49.904;14.390;2024-03-08T00:56:56;50.22;;;24.48;;
79640;SDS011;69115;49.904;14.390;2024-03-08T00:59:21;46.10;;;22.65;;
79640;SDS011;69115;49.904;14.390;2024-03-08T01:01:47;49.85;;;23.83;;
79640;SDS011;69115;49.904;14.390;2024-03-08T01:04:12;46.85;;;22.90;;
79640;SDS011;69115;49.904;14.390;2024-03-08T01:06:37;48.60;;;24.25;;
79640;SDS011;69115;49.904;14.390;2024-03-08T01:09:03;49.17;;;23.25;;
79640;SDS011;69115;49.904;14.390;2024-03-08T01:11:31;46.40;;;23.63;;
79640;SDS011;69115;49.904;14.390;2024-03-08T01:13:57;46.85;;;23.30;;
79640;SDS011;69115;49.904;14.390;2024-03-08T01:16:23;47.15;;;23.30;;
79640;SDS011;69115;49.904;14.390;2024-03-08T01:18:48;49.08;;;24.30;;
79640;SDS011;69115;49.904;14.390;2024-03-08T01:21:13;49.70;;;24.65;;
79640;SDS011;69115;49.904;14.390;2024-03-08T01:23:39;51.83;;;25.50;;
79640;SDS011;69115;49.904;14.390;2024-03-08T01:26:04;44.33;;;22.73;;
79640;SDS011;69115;49.904;14.390;2024-03-08T01:28:30;47.65;;;25.10;;
79640;SDS011;69115;49.904;14.390;2024-03-08T01:30:56;44.17;;;22.80;;
79640;SDS011;69115;49.904;14.390;2024-03-08T01:33:22;49.50;;;24.10;;
79640;SDS011;69115;49.904;14.390;2024-03-08T01:35:48;49.08;;;24.58;;
79640;SDS011;69115;49.904;14.390;2024-03-08T01:38:14;46.40;;;24.02;;
79640;SDS011;69115;49.904;14.390;2024-03-08T01:40:40;47.30;;;23.92;;
79640;SDS011;69115;49.904;14.390;2024-03-08T01:45:48;49.25;;;23.48;;
79640;SDS011;69115;49.904;14.390;2024-03-08T01:48:14;47.45;;;24.83;;
79640;SDS011;69115;49.904;14.390;2024-03-08T01:50:40;47.47;;;23.92;;
79640;SDS011;69115;49.904;14.390;2024-03-08T01:53:06;46.53;;;22.35;;
79640;SDS011;69115;49.904;14.390;2024-03-08T01:55:32;51.10;;;23.20;;
79640;SDS011;69115;49.904;14.390;2024-03-08T01:57:58;49.70;;;23.98;;
79640;SDS011;69115;49.904;14.390;2024-03-08T02:00:24;50.30;;;23.88;;
79640;SDS011;69115;49.904;14.390;2024-03-08T02:02:51;48.70;;;24.45;;
79640;SDS011;69115;49.904;14.390;2024-03-08T02:05:19;48.78;;;24.02;;
79640;SDS011;69115;49.904;14.390;2024-03-08T02:07:45;46.72;;;24.35;;
79640;SDS011;69115;49.904;14.390;2024-03-08T02:10:10;54.97;;;24.90;;
79640;SDS011;69115;49.904;14.390;2024-03-08T02:12:37;50.40;;;23.20;;
79640;SDS011;69115;49.904;14.390;2024-03-08T02:15:03;47.08;;;24.02;;
79640;SDS011;69115;49.904;14.390;2024-03-08T02:17:29;49.40;;;24.35;;
79640;SDS011;69115;49.904;14.390;2024-03-08T02:19:55;48.28;;;23.77;;
79640;SDS011;69115;49.904;14.390;2024-03-08T02:22:21;52.22;;;26.00;;
79640;SDS011;69115;49.904;14.390;2024-03-08T02:24:47;55.42;;;24.95;;
79640;SDS011;69115;49.904;14.390;2024-03-08T02:27:12;50.17;;;24.92;;
79640;SDS011;69115;49.904;14.390;2024-03-08T02:29:38;53.33;;;26.23;;
79640;SDS011;69115;49.904;14.390;2024-03-08T02:32:05;52.15;;;25.08;;
79640;SDS011;69115;49.904;14.390;2024-03-08T02:34:31;48.63;;;24.77;;
79640;SDS011;69115;49.904;14.390;2024-03-08T02:36:56;51.40;;;25.35;;
79640;SDS011;69115;49.904;14.390;2024-03-08T02:39:22;56.10;;;25.75;;
79640;SDS011;69115;49.904;14.390;2024-03-08T02:41:47;47.63;;;24.00;;
79640;SDS011;69115;49.904;14.390;2024-03-08T02:44:12;50.08;;;26.15;;
79640;SDS011;69115;49.904;14.390;2024-03-08T02:46:38;53.80;;;25.55;;
79640;SDS011;69115;49.904;14.390;2024-03-08T02:49:03;53.85;;;26.10;;
79640;SDS011;69115;49.904;14.390;2024-03-08T02:51:29;52.80;;;26.92;;
79640;SDS011;69115;49.904;14.390;2024-03-08T02:53:55;48.80;;;25.27;;
79640;SDS011;69115;49.904;14.390;2024-03-08T02:56:21;51.00;;;23.75;;
79640;SDS011;69115;49.904;14.390;2024-03-08T02:58:47;55.95;;;24.52;;
79640;SDS011;69115;49.904;14.390;2024-03-08T03:01:14;48.85;;;24.25;;
79640;SDS011;69115;49.904;14.390;2024-03-08T03:03:40;53.60;;;25.20;;
79640;SDS011;69115;49.904;14.390;2024-03-08T03:06:06;50.60;;;25.00;;
79640;SDS011;69115;49.904;14.390;2024-03-08T03:08:32;51.58;;;25.10;;
79640;SDS011;69115;49.904;14.390;2024-03-08T03:10:57;52.80;;;26.63;;
79640;SDS011;69115;49.904;14.390;2024-03-08T03:13:23;49.20;;;25.98;;
79640;SDS011;69115;49.904;14.390;2024-03-08T03:15:48;51.28;;;25.60;;
79640;SDS011;69115;49.904;14.390;2024-03-08T03:18:14;47.85;;;24.27;;
79640;SDS011;69115;49.904;14.390;2024-03-08T03:20:40;53.20;;;25.38;;
79640;SDS011;69115;49.904;14.390;2024-03-08T03:23:07;48.38;;;25.70;;
79640;SDS011;69115;49.904;14.390;2024-03-08T03:25:38;54.03;;;27.40;;
79640;SDS011;69115;49.904;14.390;2024-03-08T03:28:06;51.85;;;24.60;;
79640;SDS011;69115;49.904;14.390;2024-03-08T03:30:33;52.85;;;26.10;;
79640;SDS011;69115;49.904;14.390;2024-03-08T03:33:01;59.38;;;27.25;;
79640;SDS011;69115;49.904;14.390;2024-03-08T03:35:31;49.22;;;25.67;;
79640;SDS011;69115;49.904;14.390;2024-03-08T03:37:57;48.30;;;25.80;;
79640;SDS011;69115;49.904;14.390;2024-03-08T03:40:35;52.50;;;25.85;;
79640;SDS011;69115;49.904;14.390;2024-03-08T03:43:01;54.85;;;25.60;;
79640;SDS011;69115;49.904;14.390;2024-03-08T03:45:30;51.42;;;24.67;;
79640;SDS011;69115;49.904;14.390;2024-03-08T03:48:01;46.95;;;24.90;;
79640;SDS011;69115;49.904;14.390;2024-03-08T03:50:29;48.20;;;23.70;;
79640;SDS011;69115;49.904;14.390;2024-03-08T03:52:55;48.28;;;24.15;;
79640;SDS011;69115;49.904;14.390;2024-03-08T03:55:20;50.97;;;23.63;;
79640;SDS011;69115;49.904;14.390;2024-03-08T03:57:47;53.53;;;24.45;;
79640;SDS011;69115;49.904;14.390;2024-03-08T04:00:12;54.00;;;25.92;;
79640;SDS011;69115;49.904;14.390;2024-03-08T04:02:38;55.75;;;24.27;;
79640;SDS011;69115;49.904;14.390;2024-03-08T04:05:07;47.20;;;23.25;;
79640;SDS011;69115;49.904;14.390;2024-03-08T04:07:33;53.78;;;26.15;;
79640;SDS011;69115;49.904;14.390;2024-03-08T04:09:59;54.13;;;25.25;;
79640;SDS011;69115;49.904;14.390;2024-03-08T04:12:26;51.65;;;24.30;;
79640;SDS011;69115;49.904;14.390;2024-03-08T04:14:54;48.35;;;24.63;;
79640;SDS011;69115;49.904;14.390;2024-03-08T04:17:23;56.05;;;24.77;;
79640;SDS011;69115;49.904;14.390;2024-03-08T04:19:51;51.63;;;24.23;;
79640;SDS011;69115;49.904;14.390;2024-03-08T04:22:17;50.00;;;23.30;;
79640;SDS011;69115;49.904;14.390;2024-03-08T04:24:46;48.03;;;21.38;;
79640;SDS011;69115;49.904;14.390;2024-03-08T04:27:12;42.13;;;20.58;;
79640;SDS011;69115;49.904;14.390;2024-03-08T04:29:38;40.22;;;19.50;;
79640;SDS011;69115;49.904;14.390;2024-03-08T04:32:03;41.13;;;17.45;;
79640;SDS011;69115;49.904;14.390;2024-03-08T04:34:30;35.20;;;16.60;;
79640;SDS011;69115;49.904;14.390;2024-03-08T04:36:59;33.63;;;16.80;;
79640;SDS011;69115;49.904;14.390;2024-03-08T04:39:24;36.28;;;17.15;;
79640;SDS011;69115;49.904;14.390;2024-03-08T04:41:53;33.95;;;16.35;;
79640;SDS011;69115;49.904;14.390;2024-03-08T04:44:19;38.22;;;17.73;;
79640;SDS011;69115;49.904;14.390;2024-03-08T04:46:45;31.92;;;16.20;;
79640;SDS011;69115;49.904;14.390;2024-03-08T04:49:11;32.88;;;16.05;;
79640;SDS011;69115;49.904;14.390;2024-03-08T04:51:38;36.85;;;17.17;;
79640;SDS011;69115;49.904;14.390;2024-03-08T04:54:03;34.92;;;16.77;;
79640;SDS011;69115;49.904;14.390;2024-03-08T04:56:30;36.75;;;16.58;;
79640;SDS011;69115;49.904;14.390;2024-03-08T04:58:55;35.72;;;16.20;;
79640;SDS011;69115;49.904;14.390;2024-03-08T05:01:21;35.60;;;17.23;;
79640;SDS011;69115;49.904;14.390;2024-03-08T05:03:46;40.22;;;17.65;;
79640;SDS011;69115;49.904;14.390;2024-03-08T05:06:14;35.22;;;17.08;;
79640;SDS011;69115;49.904;14.390;2024-03-08T05:08:40;37.05;;;18.30;;
79640;SDS011;69115;49.904;14.390;2024-03-08T05:11:06;35.28;;;16.65;;
79640;SDS011;69115;49.904;14.390;2024-03-08T05:13:32;38.03;;;18.45;;
79640;SDS011;69115;49.904;14.390;2024-03-08T05:15:59;34.28;;;17.45;;
79640;SDS011;69115;49.904;14.390;2024-03-08T05:18:24;35.83;;;17.27;;
79640;SDS011;69115;49.904;14.390;2024-03-08T05:20:50;35.20;;;16.65;;
79640;SDS011;69115;49.904;14.390;2024-03-08T05:23:16;38.25;;;17.52;;
79640;SDS011;69115;49.904;14.390;2024-03-08T05:25:44;39.15;;;16.98;;
79640;SDS011;69115;49.904;14.390;2024-03-08T05:28:11;37.20;;;16.15;;
79640;SDS011;69115;49.904;14.390;2024-03-08T05:30:37;34.67;;;16.80;;
79640;SDS011;69115;49.904;14.390;2024-03-08T05:33:03;40.13;;;18.02;;
79640;SDS011;69115;49.904;14.390;2024-03-08T05:35:29;36.28;;;16.88;;
79640;SDS011;69115;49.904;14.390;2024-03-08T05:37:54;35.00;;;16.58;;
79640;SDS011;69115;49.904;14.390;2024-03-08T05:40:19;34.53;;;15.85;;
79640;SDS011;69115;49.904;14.390;2024-03-08T05:42:45;38.13;;;16.52;;
79640;SDS011;69115;49.904;14.390;2024-03-08T05:45:10;35.75;;;16.35;;
79640;SDS011;69115;49.904;14.390;2024-03-08T05:47:36;42.72;;;17.50;;
79640;SDS011;69115;49.904;14.390;2024-03-08T05:50:01;33.67;;;15.25;;
79640;SDS011;69115;49.904;14.390;2024-03-08T05:52:27;34.33;;;15.55;;
79640;SDS011;69115;49.904;14.390;2024-03-08T05:54:52;32.90;;;16.45;;
79640;SDS011;69115;49.904;14.390;2024-03-08T05:57:18;34.47;;;16.05;;
79640;SDS011;69115;49.904;14.390;2024-03-08T05:59:44;32.78;;;15.30;;
79640;SDS011;69115;49.904;14.390;2024-03-08T06:02:09;38.92;;;16.52;;
79640;SDS011;69115;49.904;14.390;2024-03-08T06:04:35;36.03;;;15.48;;
79640;SDS011;69115;49.904;14.390;2024-03-08T06:07:00;34.10;;;15.52;;
79640;SDS011;69115;49.904;14.390;2024-03-08T06:09:28;36.55;;;16.48;;
79640;SDS011;69115;49.904;14.390;2024-03-08T06:11:53;39.42;;;16.40;;
79640;SDS011;69115;49.904;14.390;2024-03-08T06:14:19;37.00;;;17.25;;
79640;SDS011;69115;49.904;14.390;2024-03-08T06:16:45;33.03;;;15.77;;
79640;SDS011;69115;49.904;14.390;2024-03-08T06:19:11;41.50;;;18.08;;
79640;SDS011;69115;49.904;14.390;2024-03-08T06:21:37;38.58;;;17.80;;
79640;SDS011;69115;49.904;14.390;2024-03-08T06:24:03;46.00;;;19.83;;
79640;SDS011;69115;49.904;14.390;2024-03-08T06:26:29;42.90;;;18.45;;
79640;SDS011;69115;49.904;14.390;2024-03-08T06:28:54;40.65;;;19.02;;
79640;SDS011;69115;49.904;14.390;2024-03-08T06:31:20;41.97;;;18.27;;
79640;SDS011;69115;49.904;14.390;2024-03-08T06:33:46;42.95;;;19.02;;
79640;SDS011;69115;49.904;14.390;2024-03-08T06:36:11;41.78;;;18.65;;
79640;SDS011;69115;49.904;14.390;2024-03-08T06:38:37;46.45;;;20.73;;
79640;SDS011;69115;49.904;14.390;2024-03-08T06:41:08;39.45;;;18.40;;
79640;SDS011;69115;49.904;14.390;2024-03-08T06:43:34;43.85;;;20.25;;
79640;SDS011;69115;49.904;14.390;2024-03-08T06:45:59;43.17;;;18.55;;
79640;SDS011;69115;49.904;14.390;2024-03-08T06:48:25;38.60;;;18.85;;
79640;SDS011;69115;49.904;14.390;2024-03-08T06:50:53;36.53;;;18.13;;
79640;SDS011;69115;49.904;14.390;2024-03-08T06:53:19;37.78;;;17.40;;
79640;SDS011;69115;49.904;14.390;2024-03-08T06:55:44;37.22;;;17.63;;
79640;SDS011;69115;49.904;14.390;2024-03-08T06:58:10;41.38;;;17.38;;
79640;SDS011;69115;49.904;14.390;2024-03-08T07:00:36;39.50;;;18.83;;
79640;SDS011;69115;49.904;14.390;2024-03-08T07:03:01;41.25;;;18.20;;
79640;SDS011;69115;49.904;14.390;2024-03-08T07:05:28;51.65;;;21.38;;
79640;SDS011;69115;49.904;14.390;2024-03-08T07:07:54;54.03;;;24.80;;
79640;SDS011;69115;49.904;14.390;2024-03-08T07:10:20;61.70;;;26.98;;
79640;SDS011;69115;49.904;14.390;2024-03-08T07:12:49;58.65;;;25.13;;
79640;SDS011;69115;49.904;14.390;2024-03-08T07:15:21;54.53;;;23.83;;
79640;SDS011;69115;49.904;14.390;2024-03-08T07:17:48;47.97;;;20.58;;
79640;SDS011;69115;49.904;14.390;2024-03-08T07:20:14;49.17;;;20.40;;
79640;SDS011;69115;49.904;14.390;2024-03-08T07:22:43;41.58;;;20.10;;
79640;SDS011;69115;49.904;14.390;2024-03-08T07:25:12;41.85;;;19.35;;
79640;SDS011;69115;49.904;14.390;2024-03-08T07:27:48;51.58;;;22.08;;
79640;SDS011;69115;49.904;14.390;2024-03-08T07:30:14;44.97;;;21.05;;
79640;SDS011;69115;49.904;14.390;2024-03-08T07:33:00;45.03;;;20.67;;
79640;SDS011;69115;49.904;14.390;2024-03-08T07:35:27;51.47;;;23.45;;
79640;SDS011;69115;49.904;14.390;2024-03-08T07:37:53;41.85;;;17.45;;
79640;SDS011;69115;49.904;14.390;2024-03-08T07:40:22;40.30;;;18.80;;
79640;SDS011;69115;49.904;14.390;2024-03-08T07:42:48;37.67;;;17.58;;
79640;SDS011;69115;49.904;14.390;2024-03-08T07:45:16;35.55;;;17.17;;
79640;SDS011;69115;49.904;14.390;2024-03-08T07:47:42;38.97;;;17.58;;
79640;SDS011;69115;49.904;14.390;2024-03-08T07:50:07;38.67;;;17.85;;
79640;SDS011;69115;49.904;14.390;2024-03-08T07:52:36;37.08;;;16.55;;
79640;SDS011;69115;49.904;14.390;2024-03-08T07:55:04;36.53;;;17.90;;
79640;SDS011;69115;49.904;14.390;2024-03-08T07:57:31;46.75;;;20.75;;
79640;SDS011;69115;49.904;14.390;2024-03-08T07:59:57;42.05;;;19.52;;
79640;SDS011;69115;49.904;14.390;2024-03-08T08:02:22;36.58;;;18.25;;
79640;SDS011;69115;49.904;14.390;2024-03-08T08:04:48;40.17;;;18.10;;
79640;SDS011;69115;49.904;14.390;2024-03-08T08:07:13;37.03;;;17.30;;
79640;SDS011;69115;49.904;14.390;2024-03-08T08:09:39;36.67;;;17.13;;
79640;SDS011;69115;49.904;14.390;2024-03-08T08:12:05;36.72;;;16.95;;
79640;SDS011;69115;49.904;14.390;2024-03-08T08:14:32;34.78;;;17.10;;
79640;SDS011;69115;49.904;14.390;2024-03-08T08:16:57;32.97;;;16.23;;
79640;SDS011;69115;49.904;14.390;2024-03-08T08:19:25;33.33;;;15.35;;
79640;SDS011;69115;49.904;14.390;2024-03-08T08:21:52;34.42;;;16.77;;
79640;SDS011;69115;49.904;14.390;2024-03-08T08:24:17;32.55;;;16.55;;
79640;SDS011;69115;49.904;14.390;2024-03-08T08:26:45;32.65;;;16.67;;
79640;SDS011;69115;49.904;14.390;2024-03-08T08:29:10;29.23;;;15.43;;
79640;SDS011;69115;49.904;14.390;2024-03-08T08:31:36;36.20;;;16.85;;
79640;SDS011;69115;49.904;14.390;2024-03-08T08:34:01;34.30;;;15.65;;
79640;SDS011;69115;49.904;14.390;2024-03-08T08:36:28;30.75;;;16.23;;
79640;SDS011;69115;49.904;14.390;2024-03-08T08:38:54;29.67;;;15.88;;
79640;SDS011;69115;49.904;14.390;2024-03-08T08:41:21;30.20;;;14.80;;
79640;SDS011;69115;49.904;14.390;2024-03-08T08:43:47;32.70;;;16.77;;
79640;SDS011;69115;49.904;14.390;2024-03-08T08:46:18;31.13;;;15.88;;
79640;SDS011;69115;49.904;14.390;2024-03-08T08:48:44;31.63;;;15.05;;
79640;SDS011;69115;49.904;14.390;2024-03-08T08:51:12;29.63;;;15.63;;
79640;SDS011;69115;49.904;14.390;2024-03-08T08:53:38;30.88;;;15.32;;
79640;SDS011;69115;49.904;14.390;2024-03-08T08:56:07;33.28;;;16.30;;
79640;SDS011;69115;49.904;14.390;2024-03-08T08:58:38;31.58;;;16.38;;
79640;SDS011;69115;49.904;14.390;2024-03-08T09:01:04;30.63;;;16.13;;
79640;SDS011;69115;49.904;14.390;2024-03-08T09:03:30;35.88;;;15.80;;
79640;SDS011;69115;49.904;14.390;2024-03-08T09:05:55;33.08;;;15.90;;
79640;SDS011;69115;49.904;14.390;2024-03-08T09:08:21;31.48;;;15.65;;
79640;SDS011;69115;49.904;14.390;2024-03-08T09:10:48;31.25;;;15.13;;
79640;SDS011;69115;49.904;14.390;2024-03-08T09:13:13;32.55;;;16.35;;
79640;SDS011;69115;49.904;14.390;2024-03-08T09:15:39;34.10;;;16.80;;
79640;SDS011;69115;49.904;14.390;2024-03-08T09:18:05;29.90;;;15.55;;
79640;SDS011;69115;49.904;14.390;2024-03-08T09:20:31;32.33;;;15.98;;
79640;SDS011;69115;49.904;14.390;2024-03-08T09:22:57;29.73;;;15.20;;
79640;SDS011;69115;49.904;14.390;2024-03-08T09:25:22;32.33;;;15.85;;
79640;SDS011;69115;49.904;14.390;2024-03-08T09:27:48;31.75;;;15.40;;
79640;SDS011;69115;49.904;14.390;2024-03-08T09:30:14;37.00;;;18.23;;
79640;SDS011;69115;49.904;14.390;2024-03-08T09:32:40;33.95;;;16.00;;
79640;SDS011;69115;49.904;14.390;2024-03-08T09:35:06;27.42;;;15.30;;
79640;SDS011;69115;49.904;14.390;2024-03-08T09:37:32;28.75;;;16.02;;
79640;SDS011;69115;49.904;14.390;2024-03-08T09:40:00;30.17;;;14.68;;
79640;SDS011;69115;49.904;14.390;2024-03-08T09:42:29;28.55;;;15.32;;
79640;SDS011;69115;49.904;14.390;2024-03-08T09:44:56;29.42;;;14.93;;
79640;SDS011;69115;49.904;14.390;2024-03-08T09:47:22;28.08;;;14.52;;
79640;SDS011;69115;49.904;14.390;2024-03-08T09:49:52;29.02;;;14.20;;
79640;SDS011;69115;49.904;14.390;2024-03-08T09:52:18;28.52;;;15.05;;
79640;SDS011;69115;49.904;14.390;2024-03-08T09:54:43;27.48;;;14.50;;
79640;SDS011;69115;49.904;14.390;2024-03-08T09:57:09;31.92;;;16.80;;
79640;SDS011;69115;49.904;14.390;2024-03-08T09:59:35;30.83;;;15.27;;
79640;SDS011;69115;49.904;14.390;2024-03-08T10:02:01;32.72;;;15.98;;
79640;SDS011;69115;49.904;14.390;2024-03-08T10:04:28;30.60;;;14.65;;
79640;SDS011;69115;49.904;14.390;2024-03-08T10:06:55;31.55;;;16.58;;
79640;SDS011;69115;49.904;14.390;2024-03-08T10:09:24;30.95;;;15.77;;
79640;SDS011;69115;49.904;14.390;2024-03-08T10:11:58;29.70;;;14.25;;
79640;SDS011;69115;49.904;14.390;2024-03-08T10:14:24;31.80;;;15.45;;
79640;SDS011;69115;49.904;14.390;2024-03-08T10:16:51;32.75;;;15.55;;
79640;SDS011;69115;49.904;14.390;2024-03-08T10:19:17;32.08;;;14.55;;
79640;SDS011;69115;49.904;14.390;2024-03-08T10:21:51;27.30;;;15.27;;
79640;SDS011;69115;49.904;14.390;2024-03-08T10:24:18;29.80;;;14.95;;
79640;SDS011;69115;49.904;14.390;2024-03-08T10:26:44;31.48;;;15.35;;
79640;SDS011;69115;49.904;14.390;2024-03-08T10:29:10;28.33;;;14.10;;
79640;SDS011;69115;49.904;14.390;2024-03-08T10:31:35;26.38;;;14.95;;
79640;SDS011;69115;49.904;14.390;2024-03-08T10:34:02;28.27;;;14.88;;
79640;SDS011;69115;49.904;14.390;2024-03-08T10:36:28;30.65;;;15.93;;
79640;SDS011;69115;49.904;14.390;2024-03-08T10:38:53;28.92;;;14.55;;
79640;SDS011;69115;49.904;14.390;2024-03-08T10:41:19;27.88;;;15.82;;
79640;SDS011;69115;49.904;14.390;2024-03-08T10:46:55;30.02;;;15.18;;
79640;SDS011;69115;49.904;14.390;2024-03-08T10:49:50;27.65;;;15.57;;
79640;SDS011;69115;49.904;14.390;2024-03-08T10:52:18;28.17;;;14.88;;
79640;SDS011;69115;49.904;14.390;2024-03-08T10:54:44;30.10;;;15.77;;
79640;SDS011;69115;49.904;14.390;2024-03-08T10:57:10;26.83;;;15.68;;
79640;SDS011;69115;49.904;14.390;2024-03-08T10:59:37;26.27;;;14.43;;
79640;SDS011;69115;49.904;14.390;2024-03-08T11:02:04;27.70;;;14.40;;
79640;SDS011;69115;49.904;14.390;2024-03-08T11:04:30;29.25;;;15.98;;
79640;SDS011;69115;49.904;14.390;2024-03-08T11:07:01;28.70;;;15.85;;
79640;SDS011;69115;49.904;14.390;2024-03-08T11:09:32;24.17;;;13.68;;
79640;SDS011;69115;49.904;14.390;2024-03-08T11:12:44;28.70;;;15.80;;
79640;SDS011;69115;49.904;14.390;2024-03-08T11:15:02;26.05;;;14.43;;
79640;SDS011;69115;49.904;14.390;2024-03-08T11:20:03;26.65;;;14.65;;
79640;SDS011;69115;49.904;14.390;2024-03-08T11:25:08;26.63;;;14.38;;
79640;SDS011;69115;49.904;14.390;2024-03-08T11:30:03;23.90;;;13.37;;
79640;SDS011;69115;49.904;14.390;2024-03-08T11:32:55;24.13;;;14.40;;
79640;SDS011;69115;49.904;14.390;2024-03-08T11:35:26;22.88;;;13.52;;
79640;SDS011;69115;49.904;14.390;2024-03-08T11:37:52;24.15;;;13.80;;
79640;SDS011;69115;49.904;14.390;2024-03-08T11:40:17;22.50;;;13.40;;
79640;SDS011;69115;49.904;14.390;2024-03-08T11:42:47;24.08;;;12.68;;
79640;SDS011;69115;49.904;14.390;2024-03-08T11:45:14;23.85;;;13.40;;
79640;SDS011;69115;49.904;14.390;2024-03-08T11:47:43;24.45;;;13.73;;
79640;SDS011;69115;49.904;14.390;2024-03-08T11:50:12;22.80;;;12.27;;
79640;SDS011;69115;49.904;14.390;2024-03-08T11:52:38;25.00;;;14.05;;
79640;SDS011;69115;49.904;14.390;2024-03-08T11:55:04;22.25;;;12.65;;
79640;SDS011;69115;49.904;14.390;2024-03-08T11:57:30;22.58;;;12.45;;
79640;SDS011;69115;49.904;14.390;2024-03-08T11:59:57;21.02;;;11.68;;
79640;SDS011;69115;49.904;14.390;2024-03-08T12:02:24;21.92;;;12.38;;
79640;SDS011;69115;49.904;14.390;2024-03-08T12:04:59;21.73;;;12.20;;
79640;SDS011;69115;49.904;14.390;2024-03-08T12:07:25;18.85;;;10.75;;
79640;SDS011;69115;49.904;14.390;2024-03-08T12:12:43;17.27;;;10.05;;
79640;SDS011;69115;49.904;14.390;2024-03-08T12:15:12;21.38;;;10.55;;
79640;SDS011;69115;49.904;14.390;2024-03-08T12:17:38;19.52;;;11.27;;
79640;SDS011;69115;49.904;14.390;2024-03-08T12:20:12;23.80;;;12.02;;
79640;SDS011;69115;49.904;14.390;2024-03-08T12:22:43;18.63;;;11.43;;
79640;SDS011;69115;49.904;14.390;2024-03-08T12:25:10;22.25;;;11.20;;
79640;SDS011;69115;49.904;14.390;2024-03-08T12:27:37;19.60;;;11.93;;
79640;SDS011;69115;49.904;14.390;2024-03-08T12:32:58;20.00;;;11.02;;
79640;SDS011;69115;49.904;14.390;2024-03-08T12:35:25;22.10;;;12.05;;
79640;SDS011;69115;49.904;14.390;2024-03-08T12:37:52;24.30;;;11.88;;
79640;SDS011;69115;49.904;14.390;2024-03-08T12:40:19;21.42;;;11.38;;
79640;SDS011;69115;49.904;14.390;2024-03-08T12:42:54;21.02;;;11.40;;
79640;SDS011;69115;49.904;14.390;2024-03-08T12:45:20;19.98;;;11.13;;
79640;SDS011;69115;49.904;14.390;2024-03-08T12:47:49;17.63;;;10.38;;
79640;SDS011;69115;49.904;14.390;2024-03-08T12:50:18;18.77;;;11.02;;
79640;SDS011;69115;49.904;14.390;2024-03-08T12:52:44;16.88;;;9.80;;
79640;SDS011;69115;49.904;14.390;2024-03-08T12:55:09;17.48;;;10.35;;
79640;SDS011;69115;49.904;14.390;2024-03-08T12:57:35;15.18;;;9.63;;
79640;SDS011;69115;49.904;14.390;2024-03-08T13:00:02;16.27;;;9.88;;
79640;SDS011;69115;49.904;14.390;2024-03-08T13:02:29;18.65;;;10.63;;
79640;SDS011;69115;49.904;14.390;2024-03-08T13:04:56;15.55;;;9.00;;
79640;SDS011;69115;49.904;14.390;2024-03-08T13:07:22;16.92;;;9.93;;
79640;SDS011;69115;49.904;14.390;2024-03-08T13:09:54;18.15;;;9.80;;
79640;SDS011;69115;49.904;14.390;2024-03-08T13:12:20;14.95;;;8.82;;
79640;SDS011;69115;49.904;14.390;2024-03-08T13:14:46;13.93;;;8.18;;
79640;SDS011;69115;49.904;14.390;2024-03-08T13:17:13;13.35;;;7.95;;
79640;SDS011;69115;49.904;14.390;2024-03-08T13:19:39;15.00;;;8.85;;
79640;SDS011;69115;49.904;14.390;2024-03-08T13:22:04;13.27;;;8.13;;
79640;SDS011;69115;49.904;14.390;2024-03-08T13:24:30;13.05;;;8.35;;
79640;SDS011;69115;49.904;14.390;2024-03-08T13:26:56;13.13;;;8.02;;
79640;SDS011;69115;49.904;14.390;2024-03-08T13:29:23;12.93;;;7.03;;
79640;SDS011;69115;49.904;14.390;2024-03-08T13:31:48;13.50;;;7.75;;
79640;SDS011;69115;49.904;14.390;2024-03-08T13:34:17;13.73;;;7.55;;
79640;SDS011;69115;49.904;14.390;2024-03-08T13:36:43;12.82;;;7.18;;
79640;SDS011;69115;49.904;14.390;2024-03-08T13:39:10;10.05;;;6.47;;
79640;SDS011;69115;49.904;14.390;2024-03-08T13:41:41;11.48;;;6.65;;
79640;SDS011;69115;49.904;14.390;2024-03-08T13:44:07;13.63;;;7.22;;
79640;SDS011;69115;49.904;14.390;2024-03-08T13:46:32;10.98;;;6.55;;
79640;SDS011;69115;49.904;14.390;2024-03-08T13:49:04;8.38;;;5.43;;
79640;SDS011;69115;49.904;14.390;2024-03-08T13:51:36;10.32;;;6.35;;
79640;SDS011;69115;49.904;14.390;2024-03-08T13:54:01;11.05;;;6.53;;
79640;SDS011;69115;49.904;14.390;2024-03-08T13:56:27;7.82;;;4.97;;
79640;SDS011;69115;49.904;14.390;2024-03-08T13:58:55;8.75;;;5.15;;
79640;SDS011;69115;49.904;14.390;2024-03-08T14:01:22;10.85;;;5.90;;
79640;SDS011;69115;49.904;14.390;2024-03-08T14:03:47;8.23;;;5.30;;
79640;SDS011;69115;49.904;14.390;2024-03-08T14:06:13;9.90;;;6.07;;
79640;SDS011;69115;49.904;14.390;2024-03-08T14:08:38;10.90;;;6.07;;
79640;SDS011;69115;49.904;14.390;2024-03-08T14:11:04;12.88;;;7.00;;
79640;SDS011;69115;49.904;14.390;2024-03-08T14:13:42;11.98;;;6.85;;
79640;SDS011;69115;49.904;14.390;2024-03-08T14:16:11;11.38;;;6.93;;
79640;SDS011;69115;49.904;14.390;2024-03-08T14:18:37;11.77;;;6.72;;
79640;SDS011;69115;49.904;14.390;2024-03-08T14:21:03;12.68;;;7.57;;
79640;SDS011;69115;49.904;14.390;2024-03-08T14:23:29;13.00;;;7.68;;
79640;SDS011;69115;49.904;14.390;2024-03-08T14:25:55;12.98;;;7.22;;
79640;SDS011;69115;49.904;14.390;2024-03-08T14:28:21;12.65;;;7.47;;